Time;durP1;ratioP1;P1;durP2;ratioP2;P2;SDS_P1;SDS_P2;PMS_P1;PMS_P2;Temp;Humidity;BMP_temperature;BMP_pressure;BME280_temperature;BME280_humidity;BME280_pressure;Samples;Min_cycle;Max_cycle;Signal;HPM_P1;HPM_P2
2022/01/15 00:01:14;;;;;;;38.00;9.50;;;;;;;;;;2539850;54;21194;-81
2022/01/15 00:03:42;;;;;;;38.35;9.23;;;;;;;;;;2539695;54;21059;-81
2022/01/15 00:06:09;;;;;;;35.10;9.18;;;;;;;;;;2302815;58;21109;-79
2022/01/15 00:08:36;;;;;;;32.15;8.32;;;;;;;;;;2539982;54;21158;-81
2022/01/15 00:11:03;;;;;;;29.98;6.25;;;;;;;;;;2302548;58;21124;-81
2022/01/15 00:13:31;;;;;;;28.12;6.43;;;;;;;;;;2302964;58;21050;-79
2022/01/15 00:16:06;;;;;;;30.70;7.03;;;;;;;;;;2302886;58;21067;-79
2022/01/15 00:18:44;;;;;;;40.15;8.65;;;;;;;;;;2303132;58;21130;-81
2022/01/15 00:21:11;;;;;;;26.17;7.45;;;;;;;;;;2539973;54;21125;-81
2022/01/15 00:23:38;;;;;;;32.92;7.32;;;;;;;;;;2302796;58;21229;-80
2022/01/15 00:26:06;;;;;;;23.73;6.12;;;;;;;;;;2539987;54;21050;-80
2022/01/15 00:28:33;;;;;;;36.58;7.37;;;;;;;;;;2540033;54;21130;-82
2022/01/15 00:31:00;;;;;;;21.90;6.45;;;;;;;;;;2302443;58;21062;-79
2022/01/15 00:33:30;;;;;;;24.40;6.60;;;;;;;;;;2539451;54;21333;-83
2022/01/15 00:35:57;;;;;;;32.83;7.20;;;;;;;;;;2302905;58;21137;-79
2022/01/15 00:38:24;;;;;;;21.85;6.97;;;;;;;;;;2302729;58;21130;-80
2022/01/15 00:40:51;;;;;;;35.80;7.20;;;;;;;;;;2302176;58;21126;-81
2022/01/15 00:43:19;;;;;;;32.50;7.07;;;;;;;;;;2539379;54;21126;-79
2022/01/15 00:45:46;;;;;;;25.85;6.20;;;;;;;;;;2302316;58;21142;-79
2022/01/15 00:48:13;;;;;;;29.60;7.40;;;;;;;;;;2540243;54;21110;-80
2022/01/15 00:50:41;;;;;;;28.08;5.78;;;;;;;;;;2302129;58;21054;-82
2022/01/15 00:53:08;;;;;;;33.58;7.30;;;;;;;;;;2302438;58;21042;-80
2022/01/15 00:55:35;;;;;;;34.70;6.55;;;;;;;;;;2539654;54;21051;-79
2022/01/15 00:58:02;;;;;;;39.00;7.47;;;;;;;;;;2302308;58;21068;-78
2022/01/15 01:00:30;;;;;;;34.03;7.62;;;;;;;;;;2301855;58;21039;-80
2022/01/15 01:02:57;;;;;;;31.25;7.18;;;;;;;;;;2540132;54;21051;-79
2022/01/15 01:05:24;;;;;;;27.62;6.45;;;;;;;;;;2302214;58;21197;-80
2022/01/15 01:07:52;;;;;;;24.63;6.20;;;;;;;;;;2540116;54;21622;-79
2022/01/15 01:24:39;;;;;;;35.08;6.93;;;;;;;;;;2301933;58;21042;-80
2022/01/15 01:27:11;;;;;;;32.80;6.85;;;;;;;;;;2302289;58;21106;-80
2022/01/15 01:29:50;;;;;;;30.83;7.22;;;;;;;;;;2302345;58;21054;-79
2022/01/15 01:32:36;;;;;;;32.53;7.47;;;;;;;;;;2302396;58;21126;-79
2022/01/15 01:35:06;;;;;;;36.70;8.32;;;;;;;;;;2302011;58;21126;-80
2022/01/15 01:37:38;;;;;;;32.88;6.03;;;;;;;;;;2302419;58;21126;-80
2022/01/15 01:40:18;;;;;;;29.90;5.40;;;;;;;;;;2301045;58;21075;-81
2022/01/15 01:42:57;;;;;;;28.85;6.25;;;;;;;;;;2539582;54;21066;-80
2022/01/15 01:45:24;;;;;;;38.00;6.80;;;;;;;;;;2301591;58;21141;-80
2022/01/15 01:47:51;;;;;;;28.00;7.00;;;;;;;;;;2301561;58;21092;-79
2022/01/15 01:50:19;;;;;;;25.77;5.32;;;;;;;;;;2301325;58;21173;-79
2022/01/15 01:52:47;;;;;;;31.92;5.75;;;;;;;;;;2538916;54;21129;-79
2022/01/15 01:55:15;;;;;;;32.88;6.18;;;;;;;;;;2301637;58;21071;-79
2022/01/15 01:57:42;;;;;;;31.05;6.25;;;;;;;;;;2539679;54;21066;-79
2022/01/15 02:00:11;;;;;;;22.75;4.72;;;;;;;;;;2301737;58;21050;-79
2022/01/15 02:02:38;;;;;;;26.00;5.28;;;;;;;;;;2539270;54;21070;-79
2022/01/15 02:05:07;;;;;;;28.17;6.50;;;;;;;;;;2301686;58;21047;-79
2022/01/15 02:07:35;;;;;;;24.42;5.62;;;;;;;;;;2302264;58;21126;-79
2022/01/15 02:10:04;;;;;;;23.33;5.22;;;;;;;;;;2301621;58;21050;-80
2022/01/15 02:12:32;;;;;;;21.90;5.50;;;;;;;;;;2302346;58;21082;-79
2022/01/15 02:15:04;;;;;;;28.38;8.13;;;;;;;;;;2538965;54;21182;-80
2022/01/15 02:17:31;;;;;;;16.70;5.68;;;;;;;;;;2302628;58;21265;-80
2022/01/15 02:20:22;;;;;;;32.17;7.30;;;;;;;;;;2539296;54;21051;-80
2022/01/15 02:25:41;;;;;;;27.55;6.18;;;;;;;;;;2303046;58;21010;-79
2022/01/15 02:28:09;;;;;;;29.27;6.45;;;;;;;;;;2303049;58;21476;-80
2022/01/15 02:30:36;;;;;;;30.98;6.20;;;;;;;;;;2539796;54;21615;-79
2022/01/15 02:33:05;;;;;;;33.40;6.10;;;;;;;;;;2540269;54;21058;-78
2022/01/15 02:35:32;;;;;;;29.08;5.68;;;;;;;;;;2302729;58;21541;-78
2022/01/15 02:38:02;;;;;;;22.23;5.47;;;;;;;;;;2301933;58;21081;-80
2022/01/15 02:40:29;;;;;;;24.45;5.65;;;;;;;;;;2302349;58;21141;-80
2022/01/15 02:42:56;;;;;;;32.97;6.22;;;;;;;;;;2302023;58;21098;-78
2022/01/15 02:45:26;;;;;;;31.25;6.97;;;;;;;;;;2301332;58;21185;-78
2022/01/15 02:48:02;;;;;;;31.77;6.80;;;;;;;;;;2538676;54;21122;-80
2022/01/15 02:50:29;;;;;;;30.55;5.55;;;;;;;;;;2539290;54;21074;-78
2022/01/15 02:52:56;;;;;;;20.75;5.05;;;;;;;;;;2302207;58;21058;-77
2022/01/15 02:55:24;;;;;;;36.50;7.60;;;;;;;;;;2539637;54;21074;-78
2022/01/15 02:57:51;;;;;;;26.95;5.90;;;;;;;;;;2539717;54;21562;-78
2022/01/15 03:00:19;;;;;;;28.98;4.65;;;;;;;;;;2302151;58;21073;-77
2022/01/15 03:02:46;;;;;;;32.45;4.75;;;;;;;;;;2539898;54;21542;-78
2022/01/15 03:05:13;;;;;;;23.98;4.28;;;;;;;;;;2301869;58;21066;-78
2022/01/15 03:07:40;;;;;;;32.47;5.85;;;;;;;;;;2301916;58;21066;-78
2022/01/15 03:10:09;;;;;;;24.77;4.20;;;;;;;;;;2301722;58;21125;-78
2022/01/15 03:12:36;;;;;;;24.33;5.53;;;;;;;;;;2539676;54;21129;-78
2022/01/15 03:15:05;;;;;;;34.58;6.62;;;;;;;;;;2301475;58;21752;-79
2022/01/15 03:17:32;;;;;;;49.17;6.85;;;;;;;;;;2302367;58;21109;-78
2022/01/15 03:19:59;;;;;;;25.92;5.10;;;;;;;;;;2301222;58;21557;-78
2022/01/15 03:22:27;;;;;;;25.60;4.43;;;;;;;;;;2301382;58;21038;-78
2022/01/15 03:24:54;;;;;;;31.02;4.90;;;;;;;;;;2301915;58;21063;-80
2022/01/15 03:27:24;;;;;;;21.70;3.80;;;;;;;;;;2302227;58;21551;-78
2022/01/15 03:29:51;;;;;;;22.33;4.30;;;;;;;;;;2539282;54;21050;-79
2022/01/15 03:32:18;;;;;;;24.75;5.90;;;;;;;;;;2297778;58;21770;-79
2022/01/15 03:34:46;;;;;;;26.90;4.65;;;;;;;;;;2299859;58;21082;-78
2022/01/15 03:37:13;;;;;;;22.70;4.65;;;;;;;;;;2539394;54;21059;-78
2022/01/15 03:39:41;;;;;;;29.80;5.97;;;;;;;;;;2538818;54;21324;-79
2022/01/15 03:42:11;;;;;;;22.58;3.90;;;;;;;;;;2538975;54;21046;-77
2022/01/15 03:44:39;;;;;;;17.87;3.90;;;;;;;;;;2539031;54;21045;-77
2022/01/15 03:47:07;;;;;;;30.88;5.70;;;;;;;;;;2539050;54;21054;-77
2022/01/15 03:49:34;;;;;;;46.00;6.47;;;;;;;;;;2538637;54;21114;-77
2022/01/15 03:52:01;;;;;;;25.42;3.78;;;;;;;;;;2539152;54;21059;-77
2022/01/15 03:54:28;;;;;;;21.90;4.12;;;;;;;;;;2301406;58;21110;-77
2022/01/15 03:56:56;;;;;;;31.42;7.43;;;;;;;;;;2539357;54;21122;-79
2022/01/15 03:59:23;;;;;;;23.80;4.87;;;;;;;;;;2300917;58;21122;-77
2022/01/15 04:01:50;;;;;;;23.48;5.03;;;;;;;;;;2301730;58;21066;-77
2022/01/15 04:04:18;;;;;;;21.70;4.85;;;;;;;;;;2301429;58;21062;-76
2022/01/15 04:06:45;;;;;;;31.37;4.65;;;;;;;;;;2302079;58;21058;-77
2022/01/15 04:09:13;;;;;;;26.75;4.37;;;;;;;;;;2538599;54;21042;-76
2022/01/15 04:11:40;;;;;;;25.35;4.07;;;;;;;;;;2301193;58;21106;-77
2022/01/15 04:14:07;;;;;;;27.87;5.28;;;;;;;;;;2301846;58;21122;-77
2022/01/15 04:16:34;;;;;;;26.52;5.97;;;;;;;;;;2301608;58;21118;-77
2022/01/15 04:19:02;;;;;;;24.10;5.45;;;;;;;;;;2538738;54;21078;-77
2022/01/15 04:21:29;;;;;;;19.55;4.22;;;;;;;;;;2301929;58;22210;-77
2022/01/15 04:23:56;;;;;;;24.05;5.07;;;;;;;;;;2301555;58;21054;-77
2022/01/15 04:26:25;;;;;;;24.63;5.97;;;;;;;;;;2301264;58;21150;-77
2022/01/15 04:28:53;;;;;;;23.23;5.37;;;;;;;;;;2301541;58;21085;-77
2022/01/15 04:31:20;;;;;;;20.70;3.67;;;;;;;;;;2319153;54;68769;-76
2022/01/15 04:33:47;;;;;;;24.65;4.70;;;;;;;;;;2311478;58;21042;-76
2022/01/15 04:36:15;;;;;;;23.87;4.60;;;;;;;;;;2311984;58;21604;-75
2022/01/15 04:38:44;;;;;;;32.78;4.95;;;;;;;;;;2310910;58;21098;-75
2022/01/15 04:41:12;;;;;;;27.77;5.65;;;;;;;;;;2333306;57;21069;-75
2022/01/15 04:43:39;;;;;;;18.20;3.10;;;;;;;;;;2333793;57;21395;-75
2022/01/15 04:46:06;;;;;;;23.67;4.72;;;;;;;;;;2339377;53;21540;-76
2022/01/15 04:48:33;;;;;;;23.92;3.60;;;;;;;;;;2334273;57;21126;-75
2022/01/15 04:51:00;;;;;;;23.52;5.47;;;;;;;;;;2333859;57;21046;-76
2022/01/15 04:53:28;;;;;;;21.95;3.40;;;;;;;;;;2333708;57;21062;-75
2022/01/15 04:55:55;;;;;;;19.62;4.50;;;;;;;;;;2332775;57;21525;-75
2022/01/15 04:58:27;;;;;;;19.85;3.72;;;;;;;;;;2334021;57;21050;-75
2022/01/15 05:00:54;;;;;;;17.67;4.80;;;;;;;;;;2333844;57;21050;-75
2022/01/15 05:03:22;;;;;;;22.05;3.62;;;;;;;;;;2334174;57;21129;-75
2022/01/15 05:05:49;;;;;;;22.25;4.40;;;;;;;;;;2333957;57;21145;-75
2022/01/15 05:08:16;;;;;;;20.27;4.47;;;;;;;;;;2334153;57;21061;-76
2022/01/15 05:10:47;;;;;;;17.77;3.45;;;;;;;;;;2333393;57;21070;-75
2022/01/15 05:13:14;;;;;;;21.37;4.30;;;;;;;;;;2334109;57;21046;-75
2022/01/15 05:15:43;;;;;;;13.43;3.50;;;;;;;;;;2333784;57;21545;-75
2022/01/15 05:18:10;;;;;;;13.02;3.33;;;;;;;;;;2334116;57;21118;-75
2022/01/15 05:20:41;;;;;;;21.83;3.10;;;;;;;;;;2333150;57;21517;-75
2022/01/15 05:23:09;;;;;;;12.93;3.30;;;;;;;;;;2334159;57;21114;-76
2022/01/15 05:25:36;;;;;;;21.05;3.33;;;;;;;;;;2334273;57;21556;-75
2022/01/15 05:28:03;;;;;;;16.58;3.85;;;;;;;;;;2333880;57;21125;-75
2022/01/15 05:30:32;;;;;;;24.12;4.30;;;;;;;;;;2333290;57;21097;-75
2022/01/15 05:32:59;;;;;;;16.98;3.47;;;;;;;;;;2401379;53;21154;-75
2022/01/15 05:35:27;;;;;;;11.60;2.87;;;;;;;;;;2333805;57;21185;-75
2022/01/15 05:37:54;;;;;;;10.52;3.08;;;;;;;;;;2334115;57;21105;-76
2022/01/15 05:40:22;;;;;;;18.20;3.37;;;;;;;;;;2333372;57;21537;-75
2022/01/15 05:42:49;;;;;;;20.52;4.28;;;;;;;;;;2333526;57;21067;-75
2022/01/15 05:45:17;;;;;;;12.45;3.78;;;;;;;;;;2333741;57;21110;-75
2022/01/15 05:47:44;;;;;;;21.27;4.62;;;;;;;;;;2333334;57;21030;-75
2022/01/15 05:50:12;;;;;;;16.05;3.22;;;;;;;;;;2333458;57;21571;-75
2022/01/15 05:52:39;;;;;;;14.13;3.42;;;;;;;;;;2348078;53;21141;-75
2022/01/15 05:55:08;;;;;;;13.00;3.08;;;;;;;;;;2333658;57;21612;-75
2022/01/15 05:57:35;;;;;;;19.33;4.72;;;;;;;;;;2334028;57;21118;-76
2022/01/15 06:00:02;;;;;;;21.08;4.68;;;;;;;;;;2363685;53;21058;-75
2022/01/15 06:02:30;;;;;;;22.23;4.10;;;;;;;;;;2333825;57;21118;-76
2022/01/15 06:04:57;;;;;;;18.25;3.12;;;;;;;;;;2333500;57;21532;-75
2022/01/15 06:07:24;;;;;;;18.25;3.60;;;;;;;;;;2334366;57;21054;-75
2022/01/15 06:09:51;;;;;;;19.30;4.35;;;;;;;;;;2343770;53;21046;-74
2022/01/15 06:12:19;;;;;;;21.92;3.95;;;;;;;;;;2333962;57;21130;-74
2022/01/15 06:14:46;;;;;;;20.65;4.20;;;;;;;;;;2334273;57;21038;-74
2022/01/15 06:17:14;;;;;;;17.65;3.45;;;;;;;;;;2333412;57;21177;-74
2022/01/15 06:19:42;;;;;;;17.10;3.70;;;;;;;;;;2333201;57;21126;-74
2022/01/15 06:24:45;;;;;;;21.48;4.37;;;;;;;;;;2335835;57;27774;-76
2022/01/15 06:27:12;;;;;;;21.20;4.37;;;;;;;;;;2347376;57;21164;-76
2022/01/15 06:29:39;;;;;;;17.12;4.15;;;;;;;;;;2366897;53;21043;-76
2022/01/15 06:32:07;;;;;;;17.87;4.90;;;;;;;;;;2410330;52;21600;-76
2022/01/15 06:34:34;;;;;;;15.63;4.72;;;;;;;;;;2374572;56;21031;-76
2022/01/15 06:37:02;;;;;;;12.95;3.87;;;;;;;;;;2375237;56;21039;-73
2022/01/15 06:39:29;;;;;;;16.92;3.75;;;;;;;;;;2374463;56;21570;-74
2022/01/15 06:41:56;;;;;;;21.75;3.75;;;;;;;;;;2374548;56;21043;-76
2022/01/15 06:44:23;;;;;;;20.02;3.25;;;;;;;;;;2374761;56;21607;-73
2022/01/15 06:46:51;;;;;;;18.77;5.00;;;;;;;;;;2375144;56;21055;-74
2022/01/15 06:49:18;;;;;;;17.20;3.70;;;;;;;;;;2374572;56;21090;-76
2022/01/15 06:51:45;;;;;;;19.80;3.40;;;;;;;;;;2375058;56;21031;-76
2022/01/15 06:54:12;;;;;;;26.73;4.18;;;;;;;;;;2374640;56;21521;-76
2022/01/15 06:56:40;;;;;;;16.37;4.10;;;;;;;;;;2382406;52;21030;-76
2022/01/15 06:59:07;;;;;;;17.40;3.37;;;;;;;;;;2374335;56;21123;-76
2022/01/15 07:01:34;;;;;;;19.20;4.25;;;;;;;;;;2375181;56;21031;-73
2022/01/15 07:04:01;;;;;;;17.25;4.20;;;;;;;;;;2374704;56;21546;-75
2022/01/15 07:06:28;;;;;;;22.87;4.35;;;;;;;;;;2374899;56;21118;-73
2022/01/15 07:08:56;;;;;;;20.15;4.03;;;;;;;;;;2374616;56;21071;-74
2022/01/15 07:11:23;;;;;;;12.95;4.87;;;;;;;;;;2374760;56;21034;-74
2022/01/15 07:13:50;;;;;;;13.75;3.50;;;;;;;;;;2375085;56;21122;-75
2022/01/15 07:16:17;;;;;;;19.92;4.32;;;;;;;;;;2374697;56;21047;-76
2022/01/15 07:18:44;;;;;;;14.18;3.70;;;;;;;;;;2373685;56;21533;-76
2022/01/15 07:21:12;;;;;;;18.25;3.83;;;;;;;;;;2374980;56;21047;-73
2022/01/15 07:23:39;;;;;;;19.25;3.70;;;;;;;;;;2375178;56;21039;-76
2022/01/15 07:26:06;;;;;;;19.37;5.10;;;;;;;;;;2374920;56;21553;-76
2022/01/15 07:28:35;;;;;;;25.15;3.62;;;;;;;;;;2374215;56;21090;-76
2022/01/15 07:31:02;;;;;;;15.23;3.97;;;;;;;;;;2373846;56;21031;-76
2022/01/15 07:33:29;;;;;;;15.05;3.20;;;;;;;;;;2375010;56;21118;-76
2022/01/15 07:36:00;;;;;;;18.20;4.05;;;;;;;;;;2373412;56;21118;-76
2022/01/15 07:38:27;;;;;;;16.55;4.65;;;;;;;;;;2373974;56;22289;-76
2022/01/15 07:40:57;;;;;;;19.77;3.55;;;;;;;;;;2374019;56;21039;-76
2022/01/15 07:43:24;;;;;;;13.32;3.42;;;;;;;;;;2374146;56;21055;-73
2022/01/15 07:45:52;;;;;;;15.55;4.25;;;;;;;;;;2373865;56;21110;-73
2022/01/15 07:48:21;;;;;;;20.52;4.35;;;;;;;;;;2394752;52;21043;-75
2022/01/15 07:50:49;;;;;;;24.67;3.95;;;;;;;;;;2373333;56;21055;-74
2022/01/15 07:53:16;;;;;;;21.00;3.95;;;;;;;;;;2374107;56;21647;-74
2022/01/15 07:55:43;;;;;;;15.50;3.42;;;;;;;;;;2374163;56;21098;-73
2022/01/15 07:58:10;;;;;;;21.25;4.20;;;;;;;;;;2373901;56;21027;-76
2022/01/15 08:00:38;;;;;;;11.02;3.33;;;;;;;;;;2373591;56;21067;-76
2022/01/15 08:03:05;;;;;;;18.95;4.03;;;;;;;;;;2373900;56;21102;-75
2022/01/15 08:05:32;;;;;;;17.50;3.97;;;;;;;;;;2373444;56;21537;-73
2022/01/15 08:07:59;;;;;;;17.45;3.92;;;;;;;;;;2374003;56;21063;-72
2022/01/15 08:10:27;;;;;;;17.80;3.80;;;;;;;;;;2373688;56;21111;-72
2022/01/15 08:12:54;;;;;;;16.67;4.35;;;;;;;;;;2374002;56;21047;-75
2022/01/15 08:15:22;;;;;;;15.13;3.67;;;;;;;;;;2373380;56;21099;-75
2022/01/15 08:17:49;;;;;;;27.48;6.30;;;;;;;;;;2373763;56;21679;-75
2022/01/15 08:20:16;;;;;;;21.95;4.30;;;;;;;;;;2372895;56;21107;-76
2022/01/15 08:22:45;;;;;;;33.20;7.12;;;;;;;;;;2373564;56;21050;-73
2022/01/15 08:25:13;;;;;;;16.30;5.18;;;;;;;;;;2373221;56;21403;-75
2022/01/15 08:27:40;;;;;;;17.60;5.10;;;;;;;;;;2373446;56;22260;-76
2022/01/15 08:30:09;;;;;;;21.20;5.78;;;;;;;;;;2373088;56;21078;-77
2022/01/15 08:32:36;;;;;;;22.40;5.32;;;;;;;;;;2371099;56;22243;-75
2022/01/15 08:35:05;;;;;;;17.95;5.47;;;;;;;;;;2373676;56;21047;-74
2022/01/15 08:37:33;;;;;;;15.45;4.40;;;;;;;;;;2374429;52;21039;-75
2022/01/15 08:40:00;;;;;;;17.45;4.82;;;;;;;;;;2371395;56;21082;-75
2022/01/15 08:42:27;;;;;;;21.55;4.53;;;;;;;;;;2371293;56;21051;-75
2022/01/15 08:44:55;;;;;;;14.35;5.28;;;;;;;;;;2371931;56;21027;-75
2022/01/15 08:47:22;;;;;;;18.05;5.07;;;;;;;;;;2373172;56;21095;-76
2022/01/15 08:49:49;;;;;;;20.27;5.05;;;;;;;;;;2372004;56;21047;-75
2022/01/15 08:52:16;;;;;;;18.90;5.32;;;;;;;;;;2373620;56;21058;-77
2022/01/15 08:54:43;;;;;;;14.75;4.15;;;;;;;;;;2374045;56;21107;-77
2022/01/15 08:57:11;;;;;;;13.02;4.30;;;;;;;;;;2373375;56;21114;-77
2022/01/15 08:59:38;;;;;;;13.32;4.97;;;;;;;;;;2372124;56;21613;-77
2022/01/15 09:02:05;;;;;;;23.65;5.43;;;;;;;;;;2372102;56;21039;-77
2022/01/15 09:04:32;;;;;;;26.35;5.57;;;;;;;;;;2371515;56;21046;-77
2022/01/15 09:06:59;;;;;;;21.08;5.40;;;;;;;;;;2373764;56;21612;-75
2022/01/15 09:09:27;;;;;;;29.20;7.40;;;;;;;;;;2373441;56;21046;-74
2022/01/15 09:11:54;;;;;;;18.08;6.18;;;;;;;;;;2374051;56;21127;-74
2022/01/15 09:14:21;;;;;;;26.00;6.68;;;;;;;;;;2373084;56;21123;-73
2022/01/15 09:16:48;;;;;;;31.83;8.40;;;;;;;;;;2371871;56;21554;-73
2022/01/15 09:19:16;;;;;;;27.37;8.18;;;;;;;;;;2370785;56;21042;-73
2022/01/15 09:21:43;;;;;;;19.55;6.43;;;;;;;;;;2372043;56;21031;-74
2022/01/15 09:24:10;;;;;;;19.70;6.87;;;;;;;;;;2549692;52;21054;-73
2022/01/15 09:26:59;;;;;;;25.30;7.45;;;;;;;;;;2370991;56;21059;-73
2022/01/15 09:32:12;;;;;;;20.60;6.50;;;;;;;;;;2380054;52;20991;-76
2022/01/15 09:34:39;;;;;;;25.48;7.75;;;;;;;;;;2370633;56;21298;-76
2022/01/15 09:37:07;;;;;;;23.38;5.90;;;;;;;;;;2379575;52;21110;-76
2022/01/15 09:39:34;;;;;;;23.60;6.87;;;;;;;;;;2370910;56;21118;-75
2022/01/15 09:42:02;;;;;;;21.15;5.93;;;;;;;;;;2371800;56;21035;-76
2022/01/15 09:44:29;;;;;;;23.92;6.37;;;;;;;;;;2376549;52;21047;-76
2022/01/15 09:46:56;;;;;;;17.75;6.20;;;;;;;;;;2386472;52;21569;-76
2022/01/15 09:49:25;;;;;;;17.95;5.50;;;;;;;;;;2372100;56;21106;-76
2022/01/15 09:51:52;;;;;;;16.73;6.03;;;;;;;;;;2385469;52;21027;-76
2022/01/15 09:54:20;;;;;;;22.55;6.18;;;;;;;;;;2371926;56;21549;-76
2022/01/15 09:56:49;;;;;;;16.12;5.90;;;;;;;;;;2402041;52;21117;-76
2022/01/15 09:59:16;;;;;;;25.23;6.95;;;;;;;;;;2371825;56;21071;-75
2022/01/15 10:01:44;;;;;;;31.45;6.93;;;;;;;;;;2372350;56;21134;-73
2022/01/15 10:04:11;;;;;;;21.60;6.87;;;;;;;;;;2373842;56;21058;-75
2022/01/15 10:06:38;;;;;;;18.33;6.18;;;;;;;;;;2374062;56;22208;-75
2022/01/15 10:09:07;;;;;;;20.88;7.50;;;;;;;;;;2373516;56;21111;-75
2022/01/15 10:11:44;;;;;;;26.00;7.30;;;;;;;;;;2374372;56;21043;-76
2022/01/15 10:14:24;;;;;;;24.73;6.22;;;;;;;;;;2373634;56;21050;-76
2022/01/15 10:16:52;;;;;;;24.77;7.65;;;;;;;;;;2374135;56;21111;-73
2022/01/15 10:19:25;;;;;;;24.87;7.45;;;;;;;;;;2373474;56;21043;-75
2022/01/15 10:22:05;;;;;;;21.25;6.85;;;;;;;;;;2373984;56;21565;-75
2022/01/15 10:24:33;;;;;;;19.60;7.00;;;;;;;;;;2373501;56;21111;-75
2022/01/15 10:27:17;;;;;;;26.52;7.62;;;;;;;;;;2374032;56;21126;-73
2022/01/15 10:29:48;;;;;;;22.42;6.20;;;;;;;;;;2373724;56;21103;-74
2022/01/15 10:32:15;;;;;;;25.17;7.90;;;;;;;;;;2518830;52;72066;-83
2022/01/15 10:34:44;;;;;;;24.98;7.30;;;;;;;;;;2304955;58;21602;-84
2022/01/15 10:37:12;;;;;;;22.48;7.00;;;;;;;;;;2305342;58;21129;-84
2022/01/15 10:39:40;;;;;;;22.98;8.05;;;;;;;;;;2542301;54;21047;-84
2022/01/15 10:42:14;;;;;;;22.20;7.62;;;;;;;;;;2542252;54;21069;-85
2022/01/15 10:44:42;;;;;;;24.33;7.10;;;;;;;;;;2303565;58;21094;-85
2022/01/15 10:47:10;;;;;;;17.02;6.43;;;;;;;;;;2303939;58;21142;-84
2022/01/15 10:49:38;;;;;;;25.42;7.47;;;;;;;;;;2539540;54;21178;-83
2022/01/15 10:52:06;;;;;;;26.30;7.28;;;;;;;;;;2302555;58;21031;-83
2022/01/15 10:54:34;;;;;;;44.85;7.78;;;;;;;;;;2541056;54;21059;-83
2022/01/15 10:59:55;;;;;;;24.45;7.68;;;;;;;;;;2299910;58;22144;-75
2022/01/15 11:02:22;;;;;;;19.87;7.10;;;;;;;;;;2528464;55;21071;-73
2022/01/15 11:04:49;;;;;;;22.10;7.25;;;;;;;;;;2527438;54;21147;-77
2022/01/15 11:07:17;;;;;;;24.08;6.47;;;;;;;;;;2528209;54;21119;-76
2022/01/15 11:09:45;;;;;;;23.52;7.72;;;;;;;;;;2527285;54;21074;-75
2022/01/15 11:12:13;;;;;;;22.30;6.93;;;;;;;;;;2528158;55;21051;-74
2022/01/15 11:14:40;;;;;;;25.00;6.65;;;;;;;;;;2292423;58;21616;-77
2022/01/15 11:17:08;;;;;;;20.23;6.40;;;;;;;;;;2527634;54;21082;-76
2022/01/15 11:19:36;;;;;;;19.17;7.03;;;;;;;;;;2291810;58;21082;-72
2022/01/15 11:22:05;;;;;;;22.90;6.50;;;;;;;;;;2292704;58;21091;-76
2022/01/15 11:24:32;;;;;;;21.10;7.03;;;;;;;;;;2292318;58;21573;-76
2022/01/15 11:27:00;;;;;;;22.50;7.47;;;;;;;;;;2527811;55;21063;-76
2022/01/15 11:29:29;;;;;;;24.50;8.35;;;;;;;;;;2291971;58;21051;-72
2022/01/15 11:31:57;;;;;;;22.55;7.30;;;;;;;;;;2291994;58;21059;-74
2022/01/15 11:34:25;;;;;;;19.35;6.65;;;;;;;;;;2292465;58;21522;-76
2022/01/15 11:36:52;;;;;;;27.13;8.20;;;;;;;;;;2292616;58;21063;-76
2022/01/15 11:39:21;;;;;;;18.67;7.37;;;;;;;;;;2291734;58;21047;-76
2022/01/15 11:41:49;;;;;;;29.55;8.13;;;;;;;;;;2527596;54;21055;-76
2022/01/15 11:44:18;;;;;;;21.42;6.10;;;;;;;;;;2292255;58;21066;-74
2022/01/15 11:46:47;;;;;;;27.08;6.40;;;;;;;;;;2292106;58;21194;-76
2022/01/15 11:49:49;;;;;;;19.55;5.50;;;;;;;;;;2527152;54;21107;-76
2022/01/15 11:52:48;;;;;;;19.30;5.50;;;;;;;;;;2292901;58;21035;-76
2022/01/15 11:55:20;;;;;;;20.35;4.35;;;;;;;;;;2527758;55;21059;-76
2022/01/15 11:57:54;;;;;;;24.25;5.72;;;;;;;;;;2292900;58;21063;-77
2022/01/15 12:00:24;;;;;;;23.38;4.70;;;;;;;;;;2290691;58;21593;-72
2022/01/15 12:03:16;;;;;;;16.90;5.05;;;;;;;;;;2290133;58;21039;-76
2022/01/15 12:05:45;;;;;;;28.77;5.05;;;;;;;;;;2287498;58;21593;-76
2022/01/15 12:08:27;;;;;;;18.87;5.05;;;;;;;;;;2292194;58;21151;-76
2022/01/15 12:10:55;;;;;;;18.67;6.25;;;;;;;;;;2525541;55;21131;-73
2022/01/15 12:13:24;;;;;;;26.12;5.53;;;;;;;;;;2526303;54;21126;-77
2022/01/15 12:16:13;;;;;;;21.92;5.50;;;;;;;;;;2291028;58;21174;-76
2022/01/15 12:18:46;;;;;;;20.42;5.20;;;;;;;;;;2290682;58;21063;-76
2022/01/15 12:21:41;;;;;;;13.35;5.20;;;;;;;;;;2291437;58;21538;-73
2022/01/15 12:24:26;;;;;;;16.48;5.10;;;;;;;;;;2290991;58;21102;-76
2022/01/15 12:27:00;;;;;;;28.35;6.12;;;;;;;;;;2291693;58;21059;-76
2022/01/15 12:29:27;;;;;;;24.87;5.75;;;;;;;;;;2525748;55;21058;-73
2022/01/15 12:31:54;;;;;;;21.35;5.82;;;;;;;;;;2291348;58;21095;-77
2022/01/15 12:34:25;;;;;;;16.90;4.68;;;;;;;;;;2291175;58;21660;-76
2022/01/15 12:36:52;;;;;;;22.75;5.15;;;;;;;;;;2290931;58;21067;-76
2022/01/15 12:39:30;;;;;;;23.65;5.10;;;;;;;;;;2289151;58;21639;-77
2022/01/15 12:41:58;;;;;;;23.15;5.95;;;;;;;;;;2288369;58;21530;-76
2022/01/15 12:44:25;;;;;;;27.98;5.95;;;;;;;;;;2289138;58;21070;-77
2022/01/15 12:46:55;;;;;;;16.67;4.90;;;;;;;;;;2523005;54;21095;-75
2022/01/15 12:49:22;;;;;;;22.98;6.78;;;;;;;;;;2289041;58;21047;-76
2022/01/15 12:54:31;;;;;;;26.67;6.75;;;;;;;;;;2306676;57;28493;-77
2022/01/15 12:56:58;;;;;;;17.45;5.15;;;;;;;;;;2346446;57;21674;-76
2022/01/15 12:59:28;;;;;;;22.98;5.28;;;;;;;;;;2346812;57;21049;-76
2022/01/15 13:01:55;;;;;;;29.95;5.82;;;;;;;;;;2347253;57;21093;-76
2022/01/15 13:04:22;;;;;;;24.02;5.80;;;;;;;;;;2347268;57;21033;-74
2022/01/15 13:06:58;;;;;;;20.60;5.53;;;;;;;;;;2347211;57;21108;-74
2022/01/15 13:09:38;;;;;;;22.27;4.60;;;;;;;;;;2345711;57;21038;-77
2022/01/15 13:12:07;;;;;;;25.48;5.40;;;;;;;;;;2595359;53;21087;-76
2022/01/15 13:14:38;;;;;;;21.37;5.53;;;;;;;;;;2347268;57;21058;-77
2022/01/15 13:17:05;;;;;;;20.00;4.50;;;;;;;;;;2347361;57;21053;-77
2022/01/15 13:19:37;;;;;;;17.60;4.40;;;;;;;;;;2594909;52;21683;-78
2022/01/15 13:22:05;;;;;;;25.33;5.17;;;;;;;;;;2596034;53;21054;-77
2022/01/15 13:24:32;;;;;;;22.02;5.03;;;;;;;;;;2348871;57;21053;-78
2022/01/15 13:27:00;;;;;;;21.77;4.43;;;;;;;;;;2594353;53;21060;-77
2022/01/15 13:29:37;;;;;;;25.08;5.65;;;;;;;;;;2346596;57;21045;-78
2022/01/15 13:32:07;;;;;;;19.17;4.90;;;;;;;;;;2347898;57;21021;-78
2022/01/15 13:34:36;;;;;;;18.42;5.10;;;;;;;;;;2347794;57;21057;-78
2022/01/15 13:37:10;;;;;;;17.08;5.15;;;;;;;;;;2595027;53;21046;-77
2022/01/15 13:39:37;;;;;;;26.08;4.57;;;;;;;;;;2347475;57;21211;-78
2022/01/15 13:42:06;;;;;;;18.83;4.57;;;;;;;;;;2594262;53;21595;-78
2022/01/15 13:44:33;;;;;;;16.87;4.62;;;;;;;;;;2347350;57;21154;-75
2022/01/15 13:47:08;;;;;;;19.40;3.65;;;;;;;;;;2594986;53;21532;-75
2022/01/15 13:53:04;;;;;;;19.17;4.60;;;;;;;;;;2347593;57;21034;-78
2022/01/15 13:55:32;;;;;;;21.50;5.12;;;;;;;;;;2346907;57;21116;-78
2022/01/15 13:58:08;;;;;;;23.50;4.60;;;;;;;;;;2595001;53;21524;-77
2022/01/15 14:00:35;;;;;;;21.58;4.75;;;;;;;;;;2594782;52;21615;-78
2022/01/15 14:03:04;;;;;;;26.30;5.60;;;;;;;;;;2347498;57;21117;-75
2022/01/15 14:05:31;;;;;;;23.85;4.43;;;;;;;;;;2593953;53;21599;-75
2022/01/15 14:07:59;;;;;;;20.88;4.37;;;;;;;;;;2347175;57;21033;-78
2022/01/15 14:10:26;;;;;;;27.02;4.40;;;;;;;;;;2345849;57;21132;-78
2022/01/15 14:13:00;;;;;;;22.42;5.05;;;;;;;;;;2347269;57;21038;-75
2022/01/15 14:15:26;;;;;;;;;;;;;;;;;;2349685;57;21089;-79
2022/01/15 14:18:00;;;;;;;18.37;4.47;;;;;;;;;;2594144;53;20082;-77
2022/01/15 14:20:52;;;;;;;23.50;4.32;;;;;;;;;;2345796;57;21151;-78
2022/01/15 14:23:30;;;;;;;23.27;4.53;;;;;;;;;;2594920;53;21054;-78
2022/01/15 14:25:57;;;;;;;19.70;4.60;;;;;;;;;;2593172;53;21130;-77
2022/01/15 14:28:24;;;;;;;25.17;4.72;;;;;;;;;;2346847;57;21061;-80
2022/01/15 14:30:55;;;;;;;16.10;3.85;;;;;;;;;;2594934;53;21077;-79
2022/01/15 14:33:22;;;;;;;21.45;4.62;;;;;;;;;;2347647;57;21096;-80
2022/01/15 14:35:49;;;;;;;22.02;3.50;;;;;;;;;;2594001;53;21528;-77
2022/01/15 14:38:17;;;;;;;15.80;3.83;;;;;;;;;;2345920;57;21117;-78
2022/01/15 14:40:44;;;;;;;32.58;4.87;;;;;;;;;;2593851;52;21093;-76
2022/01/15 14:43:11;;;;;;;19.80;4.28;;;;;;;;;;2346617;57;21141;-76
2022/01/15 14:45:41;;;;;;;22.62;4.90;;;;;;;;;;2592880;52;21093;-77
2022/01/15 14:48:08;;;;;;;27.75;5.35;;;;;;;;;;2592564;52;21551;-76
2022/01/15 14:50:35;;;;;;;16.20;3.78;;;;;;;;;;2592185;52;21018;-77
2022/01/15 14:53:02;;;;;;;12.95;3.72;;;;;;;;;;2593598;53;21046;-78
2022/01/15 14:55:30;;;;;;;22.52;6.25;;;;;;;;;;2346071;57;21068;-78
2022/01/15 14:57:57;;;;;;;15.32;3.87;;;;;;;;;;2346523;57;21655;-75
2022/01/15 15:00:25;;;;;;;20.15;5.40;;;;;;;;;;2593304;53;21022;-78
2022/01/15 15:02:54;;;;;;;22.50;5.80;;;;;;;;;;2594039;53;21034;-75
2022/01/15 15:05:21;;;;;;;15.93;6.28;;;;;;;;;;2345871;57;21066;-75
2022/01/15 15:07:48;;;;;;;20.73;5.78;;;;;;;;;;2346701;57;21038;-77
2022/01/15 15:10:16;;;;;;;20.55;5.40;;;;;;;;;;2345457;57;21077;-77
2022/01/15 15:12:49;;;;;;;19.67;5.62;;;;;;;;;;2346517;57;21029;-78